KIWA

Phoenix-Mesa Gateway Airport

Phoenix, Arizona, USA
METAR KIWA 221947Z 17010KT 45SM SCT070 SCT080 28/13 A2990 RMK TCU DSNT ALQDS
Observed Flight Rules
Oct-22 @ 19:47 UTC (60 minutes ago) Visual Flight Rules
Wind Visibility Clouds
170° at 10 knots 45 miles
  • Scattered at 7,000' AGL
  • Scattered at 8,000' AGL
Temperatures Readings
Current 28°C / 82°F
Dewpoint 13°C / 55°F
Humidity 40%
Altimeter 29.9" Hg
Pressure 1013 hPa
Elevation 412
METAR KIWA 221947Z 17010KT 45SM SCT070 SCT080 28/13 A2990 RMK TCU DSNT ALQDS
Observed Flight Rules
Oct-22 @ 19:47 UTC
(60 minutes ago)
VFR
Wind Visibility
170° at 10 knots 45 miles
Clouds
  • Scattered at 7,000' AGL
  • Scattered at 8,000' AGL
Temperature Dewpoint
28°C / 82°F 13°C / 55°F
Humidity Altimeter Pressure
40% 29.9" Hg 1013 hPa